ヘルシンキ/ヴァンター の空港の天気 - METARとTAF

ヘルシンキ・ヴァンター国際空港 ( EFHK / HEL ) - フィンランド ヴァンター
飛行場実況気象(Metar)
観測時間12/14 08:20 EET (12/14 06:20 UTC)
風向・風速北北東 3m/s
視程10km以上
天気現象弱い雪
全天を覆う雲 雲底高度 270m
気温-5℃
湿度93%
気圧1034hPa
METAREFHK 140620Z 02005KT 9999 -SN OVC009 M05/M06 Q1034 BECMG OVC010
過去の天気等 Google飛行場航空写真 Wunderground天気予報

過去48時間のMETAR

飛行場予報(TAF)
発表時間: 12/14 07:36 EET (12/14 05:36 UTC)
予報対象時間: 14日8時 EET ~ 15日8時 EET
風向・風速北北東 3m/s
視程10km以上
全天を覆う雲 雲底高度 270m
14日8時 EET ~ 14日10時 EET に徐々に
全天を覆う雲 雲底高度 340m
14日14時 EET ~ 14日16時 EET に徐々に
全天の8割程度の雲 雲底高度 460m
TAF EFHK 140536Z 1406/1506 03005KT 9999 OVC009
BECMG 1406/1408 OVC011
BECMG 1412/1414 BKN015